sensor_id;sensor_type;location;lat;lon;timestamp;pressure;altitude;pressure_sealevel;temperature;humidity
11692;BME280;33659;42.672;23.354;2023-05-10T00:00:19;94616.91;;;11.30;82.96
11692;BME280;33659;42.672;23.354;2023-05-10T00:02:47;94622.88;;;11.18;82.56
11692;BME280;33659;42.672;23.354;2023-05-10T00:05:14;94619.81;;;11.04;82.76
11692;BME280;33659;42.672;23.354;2023-05-10T00:07:41;94612.59;;;11.01;83.06
11692;BME280;33659;42.672;23.354;2023-05-10T00:10:10;94609.56;;;10.99;83.03
11692;BME280;33659;42.672;23.354;2023-05-10T00:12:37;94610.50;;;10.94;83.26
11692;BME280;33659;42.672;23.354;2023-05-10T00:15:06;94608.78;;;10.98;83.00
11692;BME280;33659;42.672;23.354;2023-05-10T00:17:33;94607.91;;;10.94;82.72
11692;BME280;33659;42.672;23.354;2023-05-10T00:20:00;94611.59;;;10.93;82.63
11692;BME280;33659;42.672;23.354;2023-05-10T00:22:27;94608.66;;;10.95;82.49
11692;BME280;33659;42.672;23.354;2023-05-10T00:24:53;94611.50;;;10.90;82.30
11692;BME280;33659;42.672;23.354;2023-05-10T00:27:20;94607.66;;;10.87;82.76
11692;BME280;33659;42.672;23.354;2023-05-10T00:29:47;94610.94;;;10.84;82.51
11692;BME280;33659;42.672;23.354;2023-05-10T00:32:15;94604.72;;;10.76;83.06
11692;BME280;33659;42.672;23.354;2023-05-10T00:34:41;94608.38;;;10.75;82.98
11692;BME280;33659;42.672;23.354;2023-05-10T00:37:08;94597.75;;;10.80;82.79
11692;BME280;33659;42.672;23.354;2023-05-10T00:39:35;94607.56;;;10.83;82.92
11692;BME280;33659;42.672;23.354;2023-05-10T00:42:01;94599.91;;;10.78;82.06
11692;BME280;33659;42.672;23.354;2023-05-10T00:44:29;94596.88;;;10.76;82.15
11692;BME280;33659;42.672;23.354;2023-05-10T00:46:57;94595.47;;;10.79;82.76
11692;BME280;33659;42.672;23.354;2023-05-10T00:49:25;94591.88;;;10.83;82.47
11692;BME280;33659;42.672;23.354;2023-05-10T00:51:52;94597.13;;;10.83;82.90
11692;BME280;33659;42.672;23.354;2023-05-10T00:54:19;94598.84;;;10.79;82.61
11692;BME280;33659;42.672;23.354;2023-05-10T00:56:46;94589.66;;;10.73;83.40
11692;BME280;33659;42.672;23.354;2023-05-10T00:59:14;94590.63;;;10.69;83.65
11692;BME280;33659;42.672;23.354;2023-05-10T01:01:42;94597.50;;;10.73;83.42
11692;BME280;33659;42.672;23.354;2023-05-10T01:04:09;94588.81;;;10.69;82.93
11692;BME280;33659;42.672;23.354;2023-05-10T01:06:38;94594.78;;;10.70;82.85
11692;BME280;33659;42.672;23.354;2023-05-10T01:09:05;94590.38;;;10.62;83.02
11692;BME280;33659;42.672;23.354;2023-05-10T01:11:32;94585.06;;;10.58;83.60
11692;BME280;33659;42.672;23.354;2023-05-10T01:13:59;94586.66;;;10.50;83.37
11692;BME280;33659;42.672;23.354;2023-05-10T01:16:26;94593.09;;;10.53;83.04
11692;BME280;33659;42.672;23.354;2023-05-10T01:18:53;94576.94;;;10.39;82.61
11692;BME280;33659;42.672;23.354;2023-05-10T01:21:26;94581.25;;;10.35;82.67
11692;BME280;33659;42.672;23.354;2023-05-10T01:24:12;94580.16;;;10.36;82.99
11692;BME280;33659;42.672;23.354;2023-05-10T01:27:02;94585.19;;;10.41;83.50
11692;BME280;33659;42.672;23.354;2023-05-10T01:30:08;94583.69;;;10.40;83.10
11692;BME280;33659;42.672;23.354;2023-05-10T01:32:49;94578.22;;;10.33;83.63
11692;BME280;33659;42.672;23.354;2023-05-10T01:35:26;94574.03;;;10.11;83.43
11692;BME280;33659;42.672;23.354;2023-05-10T01:38:06;94571.69;;;9.97;84.02
11692;BME280;33659;42.672;23.354;2023-05-10T01:40:37;94567.94;;;9.86;84.35
11692;BME280;33659;42.672;23.354;2023-05-10T01:43:10;94566.59;;;9.80;83.35
11692;BME280;33659;42.672;23.354;2023-05-10T01:45:44;94559.13;;;9.69;84.24
11692;BME280;33659;42.672;23.354;2023-05-10T01:48:14;94555.91;;;9.72;84.35
11692;BME280;33659;42.672;23.354;2023-05-10T01:50:43;94550.81;;;9.76;84.23
11692;BME280;33659;42.672;23.354;2023-05-10T01:53:11;94553.72;;;9.74;84.20
11692;BME280;33659;42.672;23.354;2023-05-10T01:55:42;94570.34;;;9.91;84.29
11692;BME280;33659;42.672;23.354;2023-05-10T01:58:11;94571.81;;;9.80;83.03
11692;BME280;33659;42.672;23.354;2023-05-10T02:00:40;94571.06;;;9.70;84.62
11692;BME280;33659;42.672;23.354;2023-05-10T02:03:10;94565.50;;;9.51;84.76
11692;BME280;33659;42.672;23.354;2023-05-10T02:05:40;94564.22;;;9.36;85.21
11692;BME280;33659;42.672;23.354;2023-05-10T02:08:08;94562.72;;;9.27;83.59
11692;BME280;33659;42.672;23.354;2023-05-10T02:10:36;94570.44;;;9.06;84.17
11692;BME280;33659;42.672;23.354;2023-05-10T02:13:05;94570.50;;;8.97;82.43
11692;BME280;33659;42.672;23.354;2023-05-10T02:15:34;94567.47;;;8.69;81.74
11692;BME280;33659;42.672;23.354;2023-05-10T02:18:02;94571.03;;;8.47;82.29
11692;BME280;33659;42.672;23.354;2023-05-10T02:20:31;94573.34;;;8.40;83.69
11692;BME280;33659;42.672;23.354;2023-05-10T02:23:01;94567.22;;;8.36;83.65
11692;BME280;33659;42.672;23.354;2023-05-10T02:25:30;94575.19;;;8.31;83.73
11692;BME280;33659;42.672;23.354;2023-05-10T02:28:00;94571.78;;;8.22;83.49
11692;BME280;33659;42.672;23.354;2023-05-10T02:30:28;94580.22;;;8.19;82.88
11692;BME280;33659;42.672;23.354;2023-05-10T02:32:57;94585.72;;;8.08;82.45
11692;BME280;33659;42.672;23.354;2023-05-10T02:35:25;94577.44;;;7.98;79.18
11692;BME280;33659;42.672;23.354;2023-05-10T02:37:53;94577.28;;;7.94;78.76
11692;BME280;33659;42.672;23.354;2023-05-10T02:40:22;94582.81;;;7.93;79.77
11692;BME280;33659;42.672;23.354;2023-05-10T02:42:52;94582.63;;;7.89;79.54
11692;BME280;33659;42.672;23.354;2023-05-10T02:45:24;94569.00;;;7.75;79.13
11692;BME280;33659;42.672;23.354;2023-05-10T02:47:53;94568.25;;;7.74;79.23
11692;BME280;33659;42.672;23.354;2023-05-10T02:50:21;94557.69;;;7.62;79.04
11692;BME280;33659;42.672;23.354;2023-05-10T02:52:50;94574.19;;;7.66;79.84
11692;BME280;33659;42.672;23.354;2023-05-10T02:55:21;94550.34;;;7.64;78.77
11692;BME280;33659;42.672;23.354;2023-05-10T02:57:52;94561.66;;;7.68;78.99
11692;BME280;33659;42.672;23.354;2023-05-10T03:00:24;94571.13;;;7.64;78.94
11692;BME280;33659;42.672;23.354;2023-05-10T03:02:51;94557.97;;;7.60;78.55
11692;BME280;33659;42.672;23.354;2023-05-10T03:05:18;94562.25;;;7.56;78.54
11692;BME280;33659;42.672;23.354;2023-05-10T03:07:45;94559.31;;;7.49;79.08
11692;BME280;33659;42.672;23.354;2023-05-10T03:10:12;94557.94;;;7.52;78.79
11692;BME280;33659;42.672;23.354;2023-05-10T03:12:47;94586.09;;;7.58;78.50
11692;BME280;33659;42.672;23.354;2023-05-10T03:15:22;94566.81;;;7.59;79.18
11692;BME280;33659;42.672;23.354;2023-05-10T03:17:54;94569.59;;;7.63;79.23
11692;BME280;33659;42.672;23.354;2023-05-10T03:20:25;94565.16;;;7.64;79.58
11692;BME280;33659;42.672;23.354;2023-05-10T03:22:55;94568.88;;;7.80;80.21
11692;BME280;33659;42.672;23.354;2023-05-10T03:25:26;94571.03;;;7.95;79.87
11692;BME280;33659;42.672;23.354;2023-05-10T03:27:54;94571.31;;;8.02;79.38
11692;BME280;33659;42.672;23.354;2023-05-10T03:30:24;94575.31;;;8.17;77.92
11692;BME280;33659;42.672;23.354;2023-05-10T03:32:51;94575.59;;;8.24;78.62
11692;BME280;33659;42.672;23.354;2023-05-10T03:35:18;94584.34;;;8.37;77.31
11692;BME280;33659;42.672;23.354;2023-05-10T03:37:45;94586.34;;;8.49;78.54
11692;BME280;33659;42.672;23.354;2023-05-10T03:40:12;94589.53;;;8.63;78.11
11692;BME280;33659;42.672;23.354;2023-05-10T03:42:38;94583.41;;;8.76;77.67
11692;BME280;33659;42.672;23.354;2023-05-10T03:45:06;94583.84;;;8.87;75.97
11692;BME280;33659;42.672;23.354;2023-05-10T03:47:35;94587.47;;;8.94;75.73
11692;BME280;33659;42.672;23.354;2023-05-10T03:50:01;94572.81;;;8.90;74.33
11692;BME280;33659;42.672;23.354;2023-05-10T03:52:28;94582.94;;;8.83;74.40
11692;BME280;33659;42.672;23.354;2023-05-10T03:54:55;94591.81;;;8.82;74.20
11692;BME280;33659;42.672;23.354;2023-05-10T03:57:21;94583.25;;;8.73;74.31
11692;BME280;33659;42.672;23.354;2023-05-10T03:59:48;94595.06;;;8.70;74.96
11692;BME280;33659;42.672;23.354;2023-05-10T04:02:15;94591.84;;;8.73;74.82
11692;BME280;33659;42.672;23.354;2023-05-10T04:04:43;94599.47;;;8.87;74.49
11692;BME280;33659;42.672;23.354;2023-05-10T04:07:09;94590.84;;;8.95;74.13
11692;BME280;33659;42.672;23.354;2023-05-10T04:09:36;94601.59;;;9.02;74.11
11692;BME280;33659;42.672;23.354;2023-05-10T04:12:03;94602.19;;;8.99;73.84
11692;BME280;33659;42.672;23.354;2023-05-10T04:14:30;94598.78;;;9.07;73.71
11692;BME280;33659;42.672;23.354;2023-05-10T04:16:57;94605.06;;;9.15;73.91
11692;BME280;33659;42.672;23.354;2023-05-10T04:19:24;94609.03;;;9.12;73.65
11692;BME280;33659;42.672;23.354;2023-05-10T04:21:52;94605.19;;;9.18;73.75
11692;BME280;33659;42.672;23.354;2023-05-10T04:24:19;94597.91;;;9.03;74.24
11692;BME280;33659;42.672;23.354;2023-05-10T04:26:45;94606.63;;;8.99;74.21
11692;BME280;33659;42.672;23.354;2023-05-10T04:29:12;94604.16;;;9.11;74.05
11692;BME280;33659;42.672;23.354;2023-05-10T04:31:38;94606.13;;;9.14;73.74
11692;BME280;33659;42.672;23.354;2023-05-10T04:34:05;94607.75;;;9.27;74.54
11692;BME280;33659;42.672;23.354;2023-05-10T04:36:32;94607.00;;;9.27;74.30
11692;BME280;33659;42.672;23.354;2023-05-10T04:39:02;94613.41;;;9.38;74.33
11692;BME280;33659;42.672;23.354;2023-05-10T04:41:29;94597.94;;;9.33;74.14
11692;BME280;33659;42.672;23.354;2023-05-10T04:43:55;94608.84;;;9.35;74.30
11692;BME280;33659;42.672;23.354;2023-05-10T04:46:22;94608.97;;;9.38;73.92
11692;BME280;33659;42.672;23.354;2023-05-10T04:48:49;94609.28;;;9.37;74.44
11692;BME280;33659;42.672;23.354;2023-05-10T04:51:16;94615.56;;;9.36;74.59
11692;BME280;33659;42.672;23.354;2023-05-10T04:53:42;94612.81;;;9.41;73.36
11692;BME280;33659;42.672;23.354;2023-05-10T04:56:10;94608.19;;;9.38;73.70
11692;BME280;33659;42.672;23.354;2023-05-10T04:58:37;94610.09;;;9.29;73.85
11692;BME280;33659;42.672;23.354;2023-05-10T05:01:07;94601.88;;;9.09;74.15
11692;BME280;33659;42.672;23.354;2023-05-10T05:03:34;94605.88;;;8.98;75.57
11692;BME280;33659;42.672;23.354;2023-05-10T05:06:01;94600.03;;;9.01;75.49
11692;BME280;33659;42.672;23.354;2023-05-10T05:08:28;94606.78;;;9.02;75.16
11692;BME280;33659;42.672;23.354;2023-05-10T05:10:55;94610.94;;;9.03;75.17
11692;BME280;33659;42.672;23.354;2023-05-10T05:13:23;94608.91;;;9.09;75.11
11692;BME280;33659;42.672;23.354;2023-05-10T05:15:50;94614.69;;;9.14;75.04
11692;BME280;33659;42.672;23.354;2023-05-10T05:18:16;94619.31;;;9.17;74.60
11692;BME280;33659;42.672;23.354;2023-05-10T05:20:43;94617.94;;;9.11;75.02
11692;BME280;33659;42.672;23.354;2023-05-10T05:23:09;94610.59;;;9.05;75.49
11692;BME280;33659;42.672;23.354;2023-05-10T05:25:36;94609.09;;;9.04;75.34
11692;BME280;33659;42.672;23.354;2023-05-10T05:28:03;94621.81;;;8.97;75.43
11692;BME280;33659;42.672;23.354;2023-05-10T05:30:31;94622.91;;;8.95;76.15
11692;BME280;33659;42.672;23.354;2023-05-10T05:32:58;94629.47;;;8.93;76.60
11692;BME280;33659;42.672;23.354;2023-05-10T05:35:25;94621.06;;;8.96;77.14
11692;BME280;33659;42.672;23.354;2023-05-10T05:37:51;94628.69;;;9.01;77.04
11692;BME280;33659;42.672;23.354;2023-05-10T05:40:18;94626.06;;;9.01;77.49
11692;BME280;33659;42.672;23.354;2023-05-10T05:42:45;94633.44;;;8.99;77.16
11692;BME280;33659;42.672;23.354;2023-05-10T05:45:12;94623.19;;;9.03;77.27
11692;BME280;33659;42.672;23.354;2023-05-10T05:47:41;94625.59;;;9.08;77.34
11692;BME280;33659;42.672;23.354;2023-05-10T05:50:08;94630.69;;;9.04;77.44
11692;BME280;33659;42.672;23.354;2023-05-10T05:52:35;94632.69;;;8.99;77.92
11692;BME280;33659;42.672;23.354;2023-05-10T05:55:02;94638.66;;;8.99;77.53
11692;BME280;33659;42.672;23.354;2023-05-10T05:57:28;94639.72;;;8.98;77.93
11692;BME280;33659;42.672;23.354;2023-05-10T05:59:55;94641.72;;;9.01;77.65
11692;BME280;33659;42.672;23.354;2023-05-10T06:02:22;94636.81;;;9.08;77.46
11692;BME280;33659;42.672;23.354;2023-05-10T06:04:50;94634.81;;;9.05;77.28
11692;BME280;33659;42.672;23.354;2023-05-10T06:07:16;94633.72;;;9.06;77.81
11692;BME280;33659;42.672;23.354;2023-05-10T06:09:43;94635.53;;;9.14;77.96
11692;BME280;33659;42.672;23.354;2023-05-10T06:12:10;94634.00;;;9.22;78.00
11692;BME280;33659;42.672;23.354;2023-05-10T06:14:37;94643.75;;;9.34;77.53
11692;BME280;33659;42.672;23.354;2023-05-10T06:17:03;94642.53;;;9.40;76.56
11692;BME280;33659;42.672;23.354;2023-05-10T06:19:32;94645.44;;;9.38;76.35
11692;BME280;33659;42.672;23.354;2023-05-10T06:22:00;94646.97;;;9.39;76.53
11692;BME280;33659;42.672;23.354;2023-05-10T06:24:26;94642.06;;;9.38;76.93
11692;BME280;33659;42.672;23.354;2023-05-10T06:26:53;94649.44;;;9.36;77.09
11692;BME280;33659;42.672;23.354;2023-05-10T06:29:20;94643.75;;;9.34;77.32
11692;BME280;33659;42.672;23.354;2023-05-10T06:31:46;94653.44;;;9.33;76.22
11692;BME280;33659;42.672;23.354;2023-05-10T06:34:13;94646.38;;;9.42;75.75
11692;BME280;33659;42.672;23.354;2023-05-10T06:36:40;94643.44;;;9.44;74.63
11692;BME280;33659;42.672;23.354;2023-05-10T06:39:08;94658.47;;;9.47;74.52
11692;BME280;33659;42.672;23.354;2023-05-10T06:41:36;94649.19;;;9.58;74.30
11692;BME280;33659;42.672;23.354;2023-05-10T06:44:03;94648.31;;;9.54;74.06
11692;BME280;33659;42.672;23.354;2023-05-10T06:46:30;94647.41;;;9.50;73.41
11692;BME280;33659;42.672;23.354;2023-05-10T06:48:57;94648.47;;;9.49;73.94
11692;BME280;33659;42.672;23.354;2023-05-10T06:51:23;94648.59;;;9.53;74.30
11692;BME280;33659;42.672;23.354;2023-05-10T06:53:50;94647.88;;;9.43;74.39
11692;BME280;33659;42.672;23.354;2023-05-10T06:56:18;94652.19;;;9.39;74.54
11692;BME280;33659;42.672;23.354;2023-05-10T06:58:46;94655.09;;;9.38;73.66
11692;BME280;33659;42.672;23.354;2023-05-10T07:01:13;94656.78;;;9.42;73.57
11692;BME280;33659;42.672;23.354;2023-05-10T07:03:40;94657.88;;;9.33;73.28
11692;BME280;33659;42.672;23.354;2023-05-10T07:06:06;94661.00;;;9.17;74.15
11692;BME280;33659;42.672;23.354;2023-05-10T07:08:33;94651.19;;;9.14;75.02
11692;BME280;33659;42.672;23.354;2023-05-10T07:11:01;94663.59;;;9.17;74.56
11692;BME280;33659;42.672;23.354;2023-05-10T07:13:30;94663.44;;;9.14;73.76
11692;BME280;33659;42.672;23.354;2023-05-10T07:15:57;94670.03;;;9.11;74.25
11692;BME280;33659;42.672;23.354;2023-05-10T07:18:24;94665.16;;;9.01;73.50
11692;BME280;33659;42.672;23.354;2023-05-10T07:20:51;94659.38;;;8.78;74.10
11692;BME280;33659;42.672;23.354;2023-05-10T07:23:18;94664.88;;;8.68;74.01
11692;BME280;33659;42.672;23.354;2023-05-10T07:25:45;94666.59;;;8.64;75.28
11692;BME280;33659;42.672;23.354;2023-05-10T07:28:12;94664.44;;;8.57;75.10
11692;BME280;33659;42.672;23.354;2023-05-10T07:30:41;94659.06;;;8.54;75.24
11692;BME280;33659;42.672;23.354;2023-05-10T07:33:08;94668.84;;;8.48;75.07
11692;BME280;33659;42.672;23.354;2023-05-10T07:35:36;94675.91;;;8.48;75.86
11692;BME280;33659;42.672;23.354;2023-05-10T07:38:02;94671.47;;;8.48;76.26
11692;BME280;33659;42.672;23.354;2023-05-10T07:40:29;94678.06;;;8.54;76.11
11692;BME280;33659;42.672;23.354;2023-05-10T07:42:56;94680.06;;;8.57;77.14
11692;BME280;33659;42.672;23.354;2023-05-10T07:45:23;94675.91;;;8.56;76.89
11692;BME280;33659;42.672;23.354;2023-05-10T07:47:51;94678.66;;;8.60;76.35
11692;BME280;33659;42.672;23.354;2023-05-10T07:50:18;94676.38;;;8.67;75.89
11692;BME280;33659;42.672;23.354;2023-05-10T07:52:44;94667.19;;;8.61;76.43
11692;BME280;33659;42.672;23.354;2023-05-10T07:55:11;94679.91;;;8.71;76.44
11692;BME280;33659;42.672;23.354;2023-05-10T07:57:38;94678.66;;;8.86;76.27
11692;BME280;33659;42.672;23.354;2023-05-10T08:00:06;94685.41;;;8.95;75.47
11692;BME280;33659;42.672;23.354;2023-05-10T08:02:35;94677.59;;;8.87;74.20
11692;BME280;33659;42.672;23.354;2023-05-10T08:05:04;94682.19;;;8.90;74.71
11692;BME280;33659;42.672;23.354;2023-05-10T08:07:30;94684.16;;;8.93;74.65
11692;BME280;33659;42.672;23.354;2023-05-10T08:09:57;94684.63;;;8.95;74.73
11692;BME280;33659;42.672;23.354;2023-05-10T08:12:24;94680.31;;;8.99;73.57
11692;BME280;33659;42.672;23.354;2023-05-10T08:14:50;94686.16;;;9.05;74.27
11692;BME280;33659;42.672;23.354;2023-05-10T08:17:17;94688.00;;;9.04;73.49
11692;BME280;33659;42.672;23.354;2023-05-10T08:19:44;94677.91;;;8.85;73.73
11692;BME280;33659;42.672;23.354;2023-05-10T08:22:12;94677.28;;;8.80;74.56
11692;BME280;33659;42.672;23.354;2023-05-10T08:24:38;94688.94;;;8.74;74.80
11692;BME280;33659;42.672;23.354;2023-05-10T08:27:07;94682.34;;;8.76;74.85
11692;BME280;33659;42.672;23.354;2023-05-10T08:29:34;94677.75;;;8.73;74.96
11692;BME280;33659;42.672;23.354;2023-05-10T08:32:01;94681.44;;;8.89;74.68
11692;BME280;33659;42.672;23.354;2023-05-10T08:34:28;94691.50;;;9.00;74.70
11692;BME280;33659;42.672;23.354;2023-05-10T08:36:56;94685.25;;;8.92;74.35
11692;BME280;33659;42.672;23.354;2023-05-10T08:39:24;94690.44;;;8.92;75.08
11692;BME280;33659;42.672;23.354;2023-05-10T08:41:53;94683.56;;;8.87;75.00
11692;BME280;33659;42.672;23.354;2023-05-10T08:44:24;94691.06;;;8.72;75.88
11692;BME280;33659;42.672;23.354;2023-05-10T08:46:53;94695.50;;;8.80;76.96
11692;BME280;33659;42.672;23.354;2023-05-10T08:49:21;94689.38;;;8.84;76.96
11692;BME280;33659;42.672;23.354;2023-05-10T08:51:51;94674.81;;;8.92;77.01
11692;BME280;33659;42.672;23.354;2023-05-10T08:54:18;94682.00;;;8.95;76.71
11692;BME280;33659;42.672;23.354;2023-05-10T08:56:46;94687.53;;;8.93;76.21
11692;BME280;33659;42.672;23.354;2023-05-10T08:59:13;94692.75;;;9.02;76.95
11692;BME280;33659;42.672;23.354;2023-05-10T09:01:42;94673.56;;;9.07;77.68
11692;BME280;33659;42.672;23.354;2023-05-10T09:04:11;94692.09;;;9.14;76.04
11692;BME280;33659;42.672;23.354;2023-05-10T09:06:38;94689.22;;;8.98;76.63
11692;BME280;33659;42.672;23.354;2023-05-10T09:09:05;94694.88;;;9.00;77.19
11692;BME280;33659;42.672;23.354;2023-05-10T09:11:32;94685.84;;;9.06;75.64
11692;BME280;33659;42.672;23.354;2023-05-10T09:14:01;94678.78;;;9.07;76.41
11692;BME280;33659;42.672;23.354;2023-05-10T09:16:27;94685.84;;;9.06;76.59
11692;BME280;33659;42.672;23.354;2023-05-10T09:18:54;94696.53;;;9.13;77.59
11692;BME280;33659;42.672;23.354;2023-05-10T09:21:21;94686.63;;;8.98;76.53
11692;BME280;33659;42.672;23.354;2023-05-10T09:23:47;94674.53;;;8.85;78.24
11692;BME280;33659;42.672;23.354;2023-05-10T09:26:15;94659.66;;;8.68;79.00
11692;BME280;33659;42.672;23.354;2023-05-10T09:28:52;94684.66;;;8.78;77.71
11692;BME280;33659;42.672;23.354;2023-05-10T09:31:21;94684.50;;;8.83;77.95
11692;BME280;33659;42.672;23.354;2023-05-10T09:33:49;94684.63;;;8.86;77.80
11692;BME280;33659;42.672;23.354;2023-05-10T09:36:16;94679.09;;;8.88;78.57
11692;BME280;33659;42.672;23.354;2023-05-10T09:38:47;94677.44;;;8.92;77.63
11692;BME280;33659;42.672;23.354;2023-05-10T09:41:18;94669.59;;;9.01;78.16
11692;BME280;33659;42.672;23.354;2023-05-10T09:43:45;94672.66;;;9.11;77.64
11692;BME280;33659;42.672;23.354;2023-05-10T09:46:12;94674.66;;;9.06;76.43
11692;BME280;33659;42.672;23.354;2023-05-10T09:48:49;94667.91;;;9.05;77.36
11692;BME280;33659;42.672;23.354;2023-05-10T09:51:19;94650.94;;;8.81;76.80
11692;BME280;33659;42.672;23.354;2023-05-10T09:53:46;94665.34;;;8.96;76.79
11692;BME280;33659;42.672;23.354;2023-05-10T09:56:32;94668.53;;;9.02;77.17
11692;BME280;33659;42.672;23.354;2023-05-10T09:59:03;94665.16;;;9.10;77.42
11692;BME280;33659;42.672;23.354;2023-05-10T10:01:30;94670.78;;;9.20;76.63
11692;BME280;33659;42.672;23.354;2023-05-10T10:03:58;94668.97;;;9.12;75.96
11692;BME280;33659;42.672;23.354;2023-05-10T10:06:25;94659.19;;;9.09;76.40
11692;BME280;33659;42.672;23.354;2023-05-10T10:08:52;94662.88;;;9.08;76.39
11692;BME280;33659;42.672;23.354;2023-05-10T10:11:20;94661.00;;;9.17;76.77
11692;BME280;33659;42.672;23.354;2023-05-10T10:13:47;94648.25;;;9.25;77.23
11692;BME280;33659;42.672;23.354;2023-05-10T10:16:13;94635.78;;;9.39;76.26
11692;BME280;33659;42.672;23.354;2023-05-10T10:18:41;94646.19;;;9.47;75.83
11692;BME280;33659;42.672;23.354;2023-05-10T10:21:10;94640.84;;;9.44;75.36
11692;BME280;33659;42.672;23.354;2023-05-10T10:23:37;94647.13;;;9.43;76.41
11692;BME280;33659;42.672;23.354;2023-05-10T10:26:04;94646.03;;;9.44;76.41
11692;BME280;33659;42.672;23.354;2023-05-10T10:28:38;94630.72;;;9.34;76.52
11692;BME280;33659;42.672;23.354;2023-05-10T10:31:17;94649.28;;;9.41;76.45
11692;BME280;33659;42.672;23.354;2023-05-10T10:34:00;94646.84;;;9.36;76.69
11692;BME280;33659;42.672;23.354;2023-05-10T10:36:28;94651.41;;;9.39;76.66
11692;BME280;33659;42.672;23.354;2023-05-10T10:38:59;94646.84;;;9.36;76.45
11692;BME280;33659;42.672;23.354;2023-05-10T10:41:28;94651.69;;;9.46;76.09
11692;BME280;33659;42.672;23.354;2023-05-10T10:44:25;94641.47;;;9.41;76.64
11692;BME280;33659;42.672;23.354;2023-05-10T10:47:03;94654.78;;;9.48;76.22
11692;BME280;33659;42.672;23.354;2023-05-10T10:49:31;94652.78;;;9.54;76.32
11692;BME280;33659;42.672;23.354;2023-05-10T10:52:21;94647.22;;;9.55;75.49
11692;BME280;33659;42.672;23.354;2023-05-10T10:54:51;94649.66;;;9.60;74.90
11692;BME280;33659;42.672;23.354;2023-05-10T10:57:19;94646.09;;;9.65;74.47
11692;BME280;33659;42.672;23.354;2023-05-10T10:59:48;94652.84;;;9.66;74.91
11692;BME280;33659;42.672;23.354;2023-05-10T11:02:44;94652.19;;;9.77;74.96
11692;BME280;33659;42.672;23.354;2023-05-10T11:05:43;94649.72;;;9.81;74.96
11692;BME280;33659;42.672;23.354;2023-05-10T11:08:14;94638.13;;;9.70;74.24
11692;BME280;33659;42.672;23.354;2023-05-10T11:10:51;94644.56;;;9.72;75.14
11692;BME280;33659;42.672;23.354;2023-05-10T11:13:27;94645.94;;;9.70;74.65
11692;BME280;33659;42.672;23.354;2023-05-10T11:15:55;94631.06;;;9.70;74.92
11692;BME280;33659;42.672;23.354;2023-05-10T11:18:25;94644.94;;;9.83;74.39
11692;BME280;33659;42.672;23.354;2023-05-10T11:20:55;94642.66;;;9.82;75.32
11692;BME280;33659;42.672;23.354;2023-05-10T11:23:29;94656.81;;;9.72;74.76
11692;BME280;33659;42.672;23.354;2023-05-10T11:25:56;94643.22;;;9.66;74.96
11692;BME280;33659;42.672;23.354;2023-05-10T11:28:23;94645.31;;;9.73;75.40
11692;BME280;33659;42.672;23.354;2023-05-10T11:30:50;94646.09;;;9.73;75.67
11692;BME280;33659;42.672;23.354;2023-05-10T11:33:18;94644.84;;;9.80;75.65
11692;BME280;33659;42.672;23.354;2023-05-10T11:35:46;94640.88;;;9.73;75.21
11692;BME280;33659;42.672;23.354;2023-05-10T11:38:14;94652.81;;;9.74;75.45
11692;BME280;33659;42.672;23.354;2023-05-10T11:40:42;94649.47;;;9.65;75.71
11692;BME280;33659;42.672;23.354;2023-05-10T11:43:09;94642.75;;;9.64;75.70
11692;BME280;33659;42.672;23.354;2023-05-10T11:45:41;94654.78;;;9.77;75.89
11692;BME280;33659;42.672;23.354;2023-05-10T11:48:07;94628.13;;;9.72;75.47
11692;BME280;33659;42.672;23.354;2023-05-10T11:50:34;94645.88;;;9.78;76.13
11692;BME280;33659;42.672;23.354;2023-05-10T11:53:01;94649.63;;;9.69;76.09
11692;BME280;33659;42.672;23.354;2023-05-10T11:55:27;94640.13;;;9.64;76.31
11692;BME280;33659;42.672;23.354;2023-05-10T11:58:00;94640.94;;;9.56;76.38
11692;BME280;33659;42.672;23.354;2023-05-10T12:00:28;94634.19;;;9.55;76.94
11692;BME280;33659;42.672;23.354;2023-05-10T12:02:55;94633.88;;;9.57;76.84
11692;BME280;33659;42.672;23.354;2023-05-10T12:05:22;94638.66;;;9.55;76.51
11692;BME280;33659;42.672;23.354;2023-05-10T12:07:48;94640.44;;;9.63;76.44
11692;BME280;33659;42.672;23.354;2023-05-10T12:10:15;94634.66;;;9.57;76.41
11692;BME280;33659;42.672;23.354;2023-05-10T12:12:44;94632.41;;;9.47;76.97
11692;BME280;33659;42.672;23.354;2023-05-10T12:15:17;94631.28;;;9.57;76.65
11692;BME280;33659;42.672;23.354;2023-05-10T12:17:44;94610.91;;;9.50;76.83
11692;BME280;33659;42.672;23.354;2023-05-10T12:20:19;94636.28;;;9.70;77.18
11692;BME280;33659;42.672;23.354;2023-05-10T12:22:49;94630.81;;;9.84;76.18
11692;BME280;33659;42.672;23.354;2023-05-10T12:25:16;94613.13;;;9.98;76.64
11692;BME280;33659;42.672;23.354;2023-05-10T12:27:48;94617.94;;;9.88;75.68
11692;BME280;33659;42.672;23.354;2023-05-10T12:30:20;94612.06;;;9.91;75.73
11692;BME280;33659;42.672;23.354;2023-05-10T12:32:48;94616.03;;;9.97;75.00
11692;BME280;33659;42.672;23.354;2023-05-10T12:35:15;94619.78;;;9.87;74.48
11692;BME280;33659;42.672;23.354;2023-05-10T12:37:42;94628.81;;;9.90;75.33
11692;BME280;33659;42.672;23.354;2023-05-10T12:40:10;94622.06;;;9.89;75.56
11692;BME280;33659;42.672;23.354;2023-05-10T12:42:38;94622.22;;;9.92;75.60
11692;BME280;33659;42.672;23.354;2023-05-10T12:45:06;94612.38;;;9.89;74.75
11692;BME280;33659;42.672;23.354;2023-05-10T12:47:35;94589.41;;;9.83;74.60
11692;BME280;33659;42.672;23.354;2023-05-10T12:50:02;94617.09;;;9.96;74.91
11692;BME280;33659;42.672;23.354;2023-05-10T12:52:30;94603.25;;;10.04;74.36
11692;BME280;33659;42.672;23.354;2023-05-10T12:54:58;94604.78;;;10.05;74.66
11692;BME280;33659;42.672;23.354;2023-05-10T12:57:25;94608.41;;;10.13;74.64
11692;BME280;33659;42.672;23.354;2023-05-10T12:59:51;94610.38;;;10.16;73.84
11692;BME280;33659;42.672;23.354;2023-05-10T13:02:18;94602.88;;;10.14;74.09
11692;BME280;33659;42.672;23.354;2023-05-10T13:04:47;94606.56;;;10.13;74.10